Time;durP1;ratioP1;P1;durP2;ratioP2;P2;SDS_P1;SDS_P2;PMS_P1;PMS_P2;Temp;Humidity;BMP_temperature;BMP_pressure;BME280_temperature;BME280_humidity;BME280_pressure;Samples;Min_cycle;Max_cycle;Signal;HPM_P1;HPM_P2
2022/10/17 00:01:39;;;;;;;9.37;7.67;;;14.30;99.90;;;;;;4926247;28;20397;-74
2022/10/17 00:04:04;;;;;;;9.40;7.00;;;14.30;99.90;;;;;;4945263;29;20194;-73
2022/10/17 00:06:30;;;;;;;9.73;8.13;;;14.30;99.90;;;;;;4929335;28;20203;-73
2022/10/17 00:08:55;;;;;;;9.13;8.17;;;14.30;99.90;;;;;;4931458;28;20562;-74
2022/10/17 00:11:22;;;;;;;13.00;9.20;;;14.30;99.90;;;;;;4920576;29;20204;-73
2022/10/17 00:13:50;;;;;;;11.07;8.93;;;14.30;99.90;;;;;;4911024;29;20212;-74
2022/10/17 00:16:23;;;;;;;11.30;8.97;;;14.30;99.90;;;;;;4931550;29;20198;-74
2022/10/17 00:18:48;;;;;;;10.47;8.50;;;14.30;99.90;;;;;;4910329;29;20282;-72
2022/10/17 00:21:15;;;;;;;18.30;9.03;;;14.30;99.90;;;;;;4933278;29;20696;-72
2022/10/17 00:23:41;;;;;;;12.07;9.33;;;14.30;99.90;;;;;;4907657;29;20740;-73
2022/10/17 00:26:06;;;;;;;10.60;9.33;;;14.30;99.90;;;;;;4924016;29;20216;-74
2022/10/17 00:28:32;;;;;;;13.07;10.47;;;14.20;99.90;;;;;;4916568;29;20650;-74
2022/10/17 00:31:00;;;;;;;17.90;10.57;;;14.30;99.90;;;;;;4927154;29;20199;-74
2022/10/17 00:33:27;;;;;;;13.87;9.23;;;14.20;99.90;;;;;;4921778;29;20737;-74
2022/10/17 00:36:14;;;;;;;12.00;9.50;;;14.30;99.90;;;;;;4924541;29;20203;-73
2022/10/17 00:38:41;;;;;;;11.80;9.77;;;14.30;99.90;;;;;;4918842;29;20191;-74
2022/10/17 00:41:14;;;;;;;15.20;9.47;;;14.30;99.90;;;;;;4927392;29;20554;-75
2022/10/17 00:44:04;;;;;;;12.80;9.83;;;14.30;99.90;;;;;;4916401;29;20225;-73
2022/10/17 00:46:36;;;;;;;13.77;9.93;;;14.30;99.90;;;;;;4928541;29;20205;-73
2022/10/17 00:49:07;;;;;;;12.00;9.17;;;14.40;99.90;;;;;;4916077;29;20544;-74
2022/10/17 00:51:39;;;;;;;13.07;8.80;;;14.40;99.90;;;;;;4924971;29;20210;-74
2022/10/17 00:54:05;;;;;;;10.53;8.13;;;14.30;99.90;;;;;;4916727;29;20235;-74
2022/10/17 00:56:31;;;;;;;9.33;7.97;;;14.40;99.90;;;;;;4922887;29;20208;-84
2022/10/17 00:58:57;;;;;;;10.17;7.87;;;14.40;99.90;;;;;;4914335;29;20195;-73
2022/10/17 01:01:22;;;;;;;10.20;7.10;;;14.40;99.90;;;;;;4925020;29;20214;-73
2022/10/17 01:03:48;;;;;;;12.40;7.87;;;14.50;99.90;;;;;;4920740;29;20936;-73
2022/10/17 01:06:13;;;;;;;8.50;7.23;;;14.50;99.90;;;;;;4938976;29;20667;-72
2022/10/17 01:08:39;;;;;;;13.37;7.33;;;14.50;99.90;;;;;;4918328;28;20647;-74
2022/10/17 01:11:23;;;;;;;7.77;7.03;;;14.40;99.90;;;;;;4940937;29;20201;-73
2022/10/17 01:14:04;;;;;;;9.37;7.07;;;14.40;99.90;;;;;;4914413;29;20238;-70
2022/10/17 01:16:56;;;;;;;12.50;7.83;;;14.30;99.90;;;;;;4924462;28;20234;-75
2022/10/17 01:19:39;;;;;;;7.60;6.80;;;14.20;99.90;;;;;;4921387;29;20183;-77
2022/10/17 01:22:25;;;;;;;7.97;7.03;;;14.10;99.90;;;;;;4915264;28;20666;-70
2022/10/17 01:25:18;;;;;;;10.77;6.93;;;14.00;99.90;;;;;;4907934;29;20187;-71
2022/10/17 01:28:17;;;;;;;8.70;7.13;;;14.00;99.90;;;;;;4906358;29;20331;-71
2022/10/17 01:31:05;;;;;;;6.20;5.60;;;13.90;99.90;;;;;;4925859;29;20241;-71
2022/10/17 01:33:33;;;;;;;7.20;5.87;;;13.90;99.90;;;;;;4919897;29;20230;-74
2022/10/17 01:36:23;;;;;;;7.90;6.10;;;13.90;99.90;;;;;;4920946;29;20324;-72
2022/10/17 01:38:56;;;;;;;8.67;6.93;;;14.00;99.90;;;;;;4922339;29;20206;-72
2022/10/17 01:41:49;;;;;;;15.50;8.03;;;14.00;99.90;;;;;;4914552;29;20202;-73
2022/10/17 01:44:21;;;;;;;12.50;6.57;;;14.00;99.90;;;;;;4917270;29;20282;-72
2022/10/17 01:46:55;;;;;;;9.67;7.87;;;14.00;99.90;;;;;;4916580;29;20214;-72
2022/10/17 01:49:25;;;;;;;9.70;5.50;;;14.00;99.90;;;;;;4919040;29;20195;-72
2022/10/17 01:51:57;;;;;;;7.37;5.47;;;13.90;99.90;;;;;;4912902;29;20218;-72
2022/10/17 01:55:03;;;;;;;6.33;5.73;;;13.90;99.90;;;;;;4920629;29;20774;-72
2022/10/17 01:57:39;;;;;;;7.10;5.73;;;13.90;99.90;;;;;;4907519;29;20219;-72
2022/10/17 02:00:10;;;;;;;7.60;5.83;;;13.90;99.90;;;;;;4926429;29;20198;-73
2022/10/17 02:02:36;;;;;;;5.83;5.27;;;13.90;99.90;;;;;;4939206;28;20332;-72
2022/10/17 02:05:03;;;;;;;5.50;4.87;;;13.80;99.90;;;;;;4924149;28;20546;-73
2022/10/17 02:07:28;;;;;;;5.57;5.07;;;13.90;99.90;;;;;;4911944;29;20211;-73
2022/10/17 02:09:54;;;;;;;5.77;5.17;;;13.90;99.90;;;;;;4924394;29;20690;-74
2022/10/17 02:12:48;;;;;;;7.53;4.77;;;13.90;99.90;;;;;;4920982;29;20286;-74
2022/10/17 02:15:36;;;;;;;5.47;4.97;;;14.00;99.90;;;;;;4907433;29;20187;-75
2022/10/17 02:18:37;;;;;;;4.70;4.30;;;13.90;99.90;;;;;;4905799;29;20207;-75
2022/10/17 02:21:09;;;;;;;6.73;5.13;;;14.00;99.90;;;;;;4905851;29;20682;-74
2022/10/17 02:23:55;;;;;;;6.17;5.57;;;14.00;99.90;;;;;;4907897;29;20294;-75
2022/10/17 02:26:48;;;;;;;5.23;4.57;;;14.10;99.90;;;;;;4907977;29;20713;-74
2022/10/17 02:29:18;;;;;;;5.80;5.27;;;14.20;99.90;;;;;;4914580;29;20718;-74
2022/10/17 02:31:52;;;;;;;5.93;5.43;;;14.30;99.90;;;;;;4944446;29;20669;-75
2022/10/17 02:34:23;;;;;;;6.87;5.30;;;14.30;99.90;;;;;;4922052;28;20223;-74
2022/10/17 02:36:53;;;;;;;5.20;4.70;;;14.40;99.90;;;;;;4910610;29;20211;-74
2022/10/17 02:39:22;;;;;;;6.17;4.93;;;14.40;99.90;;;;;;4911816;29;20187;-74
2022/10/17 02:41:49;;;;;;;5.27;4.37;;;14.40;99.90;;;;;;4927983;29;20253;-76
2022/10/17 02:44:15;;;;;;;5.10;4.70;;;14.40;99.90;;;;;;4916081;29;20191;-75
2022/10/17 02:46:43;;;;;;;5.33;4.93;;;14.40;99.90;;;;;;4933191;28;20286;-77
2022/10/17 02:49:19;;;;;;;5.20;4.70;;;14.40;99.90;;;;;;4914704;29;20612;-78
2022/10/17 02:51:57;;;;;;;5.57;5.13;;;14.40;99.90;;;;;;4917303;29;20210;-77
2022/10/17 02:54:51;;;;;;;5.33;4.67;;;14.40;99.90;;;;;;4919815;29;20800;-76
2022/10/17 02:57:36;;;;;;;5.40;4.93;;;14.50;99.90;;;;;;4921722;29;20215;-76
2022/10/17 03:00:04;;;;;;;4.57;4.17;;;14.50;99.90;;;;;;4929536;29;20285;-77
2022/10/17 03:02:42;;;;;;;5.13;4.63;;;14.40;99.90;;;;;;4925945;29;20207;-77
2022/10/17 03:05:08;;;;;;;5.73;5.13;;;14.40;99.90;;;;;;4910357;29;20191;-76
2022/10/17 03:07:34;;;;;;;6.73;5.37;;;14.50;99.90;;;;;;4926711;29;20217;-75
2022/10/17 03:09:59;;;;;;;6.43;5.67;;;14.40;99.90;;;;;;4947597;29;20186;-73
2022/10/17 03:12:25;;;;;;;5.50;5.07;;;14.40;99.90;;;;;;4910075;28;20271;-74
2022/10/17 03:14:50;;;;;;;5.30;4.80;;;14.40;99.90;;;;;;4937849;28;20224;-76
2022/10/17 03:17:15;;;;;;;5.50;5.00;;;14.40;99.90;;;;;;4933605;29;20276;-74
2022/10/17 03:19:41;;;;;;;4.50;4.10;;;14.40;99.90;;;;;;4931713;29;20819;-74
2022/10/17 03:22:06;;;;;;;5.80;5.20;;;14.40;99.90;;;;;;4923299;29;20202;-72
2022/10/17 03:24:32;;;;;;;6.33;5.47;;;14.40;99.90;;;;;;4912935;29;20610;-72
2022/10/17 03:26:57;;;;;;;5.27;4.77;;;14.40;99.90;;;;;;4939468;29;20203;-72
2022/10/17 03:29:23;;;;;;;5.20;4.53;;;14.40;99.90;;;;;;4915322;29;20279;-72
2022/10/17 03:31:48;;;;;;;5.20;4.70;;;14.40;99.90;;;;;;4923625;29;20331;-72
2022/10/17 03:34:16;;;;;;;5.10;4.70;;;14.40;99.90;;;;;;4920893;29;20604;-72
2022/10/17 03:36:42;;;;;;;6.23;4.53;;;14.40;99.90;;;;;;4930613;29;20968;-72
2022/10/17 03:39:07;;;;;;;6.47;4.77;;;14.50;99.90;;;;;;4917978;29;20198;-72
2022/10/17 03:41:34;;;;;;;5.43;4.93;;;14.40;99.90;;;;;;4940949;29;20653;-72
2022/10/17 03:43:59;;;;;;;6.00;5.10;;;14.40;99.90;;;;;;4910142;28;20200;-72
2022/10/17 03:46:25;;;;;;;5.50;5.00;;;14.40;99.90;;;;;;4938685;29;20262;-71
2022/10/17 03:48:50;;;;;;;5.93;4.87;;;14.40;99.90;;;;;;4919357;29;20204;-72
2022/10/17 03:51:16;;;;;;;5.53;5.13;;;14.40;99.90;;;;;;4928649;29;20237;-72
2022/10/17 03:53:42;;;;;;;7.63;5.47;;;14.40;99.90;;;;;;4918053;29;20661;-72
2022/10/17 03:56:15;;;;;;;5.13;4.73;;;14.40;99.90;;;;;;4939424;29;20961;-72
2022/10/17 03:58:42;;;;;;;5.50;5.00;;;14.40;99.90;;;;;;4911605;29;20195;-73
2022/10/17 04:01:09;;;;;;;5.63;5.17;;;14.40;99.90;;;;;;4938972;29;20234;-73
2022/10/17 04:03:35;;;;;;;5.67;5.23;;;14.40;99.90;;;;;;4912977;29;20270;-73
2022/10/17 04:06:02;;;;;;;5.10;4.77;;;14.40;99.90;;;;;;4935830;29;20954;-73
2022/10/17 04:08:29;;;;;;;6.57;5.20;;;14.30;99.90;;;;;;4918392;28;20318;-73
2022/10/17 04:11:03;;;;;;;6.40;5.43;;;14.30;99.90;;;;;;4936537;28;20830;-73
2022/10/17 04:13:29;;;;;;;5.40;4.90;;;14.30;99.90;;;;;;4912399;29;20223;-73
2022/10/17 04:16:00;;;;;;;5.37;4.80;;;14.30;99.90;;;;;;4943562;29;20191;-73
2022/10/17 04:18:26;;;;;;;6.33;5.20;;;14.20;99.90;;;;;;4916762;29;20254;-73
2022/10/17 04:20:51;;;;;;;5.80;5.30;;;14.20;99.90;;;;;;4925969;29;20874;-72
2022/10/17 04:23:17;;;;;;;5.87;5.37;;;14.20;99.90;;;;;;4924085;29;20195;-72
2022/10/17 04:25:42;;;;;;;5.57;5.07;;;14.20;99.90;;;;;;4932073;29;20667;-73
2022/10/17 04:28:09;;;;;;;5.30;4.90;;;14.10;99.90;;;;;;4922699;29;20218;-72
2022/10/17 04:30:34;;;;;;;5.83;5.33;;;14.20;99.90;;;;;;4927246;29;21180;-74
2022/10/17 04:33:00;;;;;;;4.87;4.47;;;14.10;99.90;;;;;;4922091;29;20226;-74
2022/10/17 04:35:25;;;;;;;6.73;5.27;;;14.10;99.90;;;;;;4932451;29;20230;-74
2022/10/17 04:37:50;;;;;;;5.37;4.87;;;14.10;99.90;;;;;;4917630;29;20242;-73
2022/10/17 04:40:16;;;;;;;5.60;5.10;;;14.10;99.90;;;;;;4941132;29;20198;-74
2022/10/17 04:42:41;;;;;;;6.67;5.87;;;14.10;99.90;;;;;;4927541;29;20619;-77
2022/10/17 04:45:07;;;;;;;5.27;4.87;;;14.10;99.90;;;;;;4934092;29;20195;-76
2022/10/17 04:47:33;;;;;;;5.90;5.30;;;14.10;99.90;;;;;;4932121;29;20244;-73
2022/10/17 04:49:58;;;;;;;6.60;6.00;;;14.10;99.90;;;;;;4931755;29;20764;-74
2022/10/17 04:52:24;;;;;;;6.03;5.53;;;14.10;99.90;;;;;;4919359;29;20231;-73
2022/10/17 04:54:50;;;;;;;6.00;5.50;;;14.10;99.90;;;;;;4920427;29;20192;-73
2022/10/17 04:57:17;;;;;;;6.17;5.67;;;14.00;99.90;;;;;;4932150;29;20464;-74
2022/10/17 04:59:42;;;;;;;5.57;5.17;;;14.10;99.90;;;;;;4912566;29;20194;-74
2022/10/17 05:02:08;;;;;;;6.73;5.93;;;14.00;99.90;;;;;;4938572;29;20202;-74
2022/10/17 05:04:33;;;;;;;5.30;4.87;;;14.00;99.90;;;;;;4914123;29;20198;-74
2022/10/17 05:06:59;;;;;;;5.93;5.43;;;14.00;99.90;;;;;;4937656;29;20199;-74
2022/10/17 05:09:24;;;;;;;7.47;5.80;;;14.00;99.90;;;;;;4907785;29;20192;-74
2022/10/17 05:11:50;;;;;;;5.53;5.13;;;14.10;99.90;;;;;;4933472;29;20231;-73
2022/10/17 05:14:15;;;;;;;6.93;6.23;;;14.10;99.90;;;;;;4917340;29;20279;-73
2022/10/17 05:16:41;;;;;;;7.00;6.30;;;14.10;99.90;;;;;;4942989;29;20206;-82
2022/10/17 05:19:06;;;;;;;6.73;6.13;;;14.20;99.90;;;;;;4912018;28;20188;-82
2022/10/17 05:21:32;;;;;;;6.57;5.17;;;14.10;99.90;;;;;;4935393;29;20197;-82
2022/10/17 05:23:57;;;;;;;7.33;5.53;;;14.20;99.90;;;;;;4923877;29;20214;-80
2022/10/17 05:26:24;;;;;;;9.33;5.30;;;14.20;99.90;;;;;;4939620;29;20923;-81
2022/10/17 05:28:51;;;;;;;7.07;5.10;;;14.30;99.90;;;;;;4928910;29;20262;-85
2022/10/17 05:31:17;;;;;;;6.97;5.47;;;14.30;99.90;;;;;;4938864;29;20195;-82
2022/10/17 05:33:42;;;;;;;6.30;5.70;;;14.30;99.90;;;;;;4916807;29;20292;-82
2022/10/17 05:36:08;;;;;;;6.73;6.13;;;14.40;99.90;;;;;;4940245;29;20215;-82
2022/10/17 05:38:34;;;;;;;6.53;5.93;;;14.40;99.90;;;;;;4919767;29;20208;-84
2022/10/17 05:41:01;;;;;;;5.80;5.30;;;14.40;99.90;;;;;;5178364;23;21828;-77
2022/10/17 05:46:06;;;;;;;7.77;5.40;;;14.40;99.90;;;;;;5697873;23;20234;-81
2022/10/17 05:48:31;;;;;;;13.67;9.50;;;14.40;99.90;;;;;;4957520;29;20160;-84
2022/10/17 05:51:06;;;;;;;8.60;7.73;;;14.40;99.90;;;;;;4947204;29;20765;-84
2022/10/17 05:53:34;;;;;;;8.37;7.57;;;14.50;99.90;;;;;;4950534;29;20483;-85
2022/10/17 05:56:02;;;;;;;6.47;5.43;;;14.50;99.90;;;;;;4953890;29;20190;-84
2022/10/17 05:58:27;;;;;;;5.97;5.37;;;14.50;99.90;;;;;;4955876;29;20337;-85
2022/10/17 06:01:02;;;;;;;7.40;5.40;;;14.50;99.90;;;;;;4940733;29;20202;-85
2022/10/17 06:03:28;;;;;;;6.00;5.40;;;14.60;99.90;;;;;;4943932;29;20207;-85
2022/10/17 06:05:53;;;;;;;6.47;5.60;;;14.60;99.90;;;;;;4947494;29;20561;-85
2022/10/17 06:08:19;;;;;;;6.17;5.07;;;14.60;99.90;;;;;;4937610;29;20277;-85
2022/10/17 06:10:49;;;;;;;5.43;5.03;;;14.60;99.90;;;;;;4937857;29;20723;-85
2022/10/17 06:13:16;;;;;;;5.83;5.13;;;14.60;99.90;;;;;;4932532;29;20218;-85
2022/10/17 06:15:42;;;;;;;12.93;6.17;;;14.60;99.90;;;;;;4941800;29;20203;-79
2022/10/17 06:18:08;;;;;;;5.50;5.00;;;14.70;99.90;;;;;;4932462;29;20198;-82
2022/10/17 06:20:34;;;;;;;9.37;5.57;;;14.70;99.90;;;;;;4937215;29;20195;-83
2022/10/17 06:23:00;;;;;;;8.63;5.40;;;14.70;99.90;;;;;;4947079;29;20194;-83
2022/10/17 06:25:26;;;;;;;5.73;5.27;;;14.80;99.90;;;;;;4942425;29;20345;-81
2022/10/17 06:27:51;;;;;;;5.70;5.17;;;14.80;99.90;;;;;;4932428;29;20289;-84
2022/10/17 06:30:16;;;;;;;5.83;5.33;;;14.80;99.90;;;;;;4931362;29;20183;-82
2022/10/17 06:32:42;;;;;;;5.53;5.00;;;14.90;99.90;;;;;;4931000;29;20268;-82
2022/10/17 06:35:07;;;;;;;7.43;5.33;;;14.90;99.90;;;;;;4929989;29;20190;-80
2022/10/17 06:37:34;;;;;;;6.33;4.77;;;14.90;99.90;;;;;;4929580;29;20642;-82
2022/10/17 06:39:59;;;;;;;6.17;5.30;;;14.90;99.90;;;;;;4929863;29;20981;-80
2022/10/17 06:42:25;;;;;;;5.53;4.90;;;14.90;99.90;;;;;;4930211;29;20318;-74
2022/10/17 06:44:50;;;;;;;5.40;4.90;;;15.00;99.90;;;;;;4938572;29;20147;-80
2022/10/17 06:47:16;;;;;;;5.77;5.30;;;15.00;99.90;;;;;;4930246;29;20571;-78
2022/10/17 06:49:41;;;;;;;5.63;5.13;;;15.00;99.90;;;;;;4929476;29;20884;-78
2022/10/17 06:52:07;;;;;;;6.50;5.87;;;15.00;99.90;;;;;;4930404;29;20198;-79
2022/10/17 06:54:32;;;;;;;5.40;5.00;;;15.00;99.90;;;;;;4928961;29;21093;-81
2022/10/17 06:56:58;;;;;;;5.30;4.73;;;15.10;99.90;;;;;;4941197;29;20308;-81
2022/10/17 06:59:23;;;;;;;7.83;5.40;;;15.10;99.90;;;;;;4939198;29;20202;-79
2022/10/17 07:01:49;;;;;;;5.90;5.40;;;15.10;99.90;;;;;;4941328;29;20206;-80
2022/10/17 07:04:14;;;;;;;6.07;5.40;;;15.10;99.90;;;;;;4945253;29;20526;-80
2022/10/17 07:06:39;;;;;;;6.20;5.00;;;15.20;99.90;;;;;;4943929;29;20548;-78
2022/10/17 07:09:05;;;;;;;5.63;5.13;;;15.20;99.90;;;;;;4947233;29;20195;-83
2022/10/17 07:11:33;;;;;;;5.57;4.37;;;15.30;99.90;;;;;;4943746;29;20334;-84
2022/10/17 07:13:59;;;;;;;5.13;4.43;;;15.30;99.90;;;;;;4941162;29;20214;-81
2022/10/17 07:16:25;;;;;;;5.67;4.83;;;15.40;99.90;;;;;;4938308;29;20229;-76
2022/10/17 07:18:51;;;;;;;5.27;4.77;;;15.50;99.90;;;;;;4943134;29;20284;-77
2022/10/17 07:21:16;;;;;;;7.23;4.83;;;15.50;99.90;;;;;;4932169;29;20294;-79
2022/10/17 07:23:42;;;;;;;8.53;4.67;;;15.60;99.90;;;;;;4945557;29;20318;-81
2022/10/17 07:26:10;;;;;;;5.40;4.60;;;15.60;99.90;;;;;;4944312;29;20674;-77
2022/10/17 07:28:38;;;;;;;6.50;4.60;;;15.70;99.90;;;;;;4949808;28;20338;-83
2022/10/17 07:31:06;;;;;;;5.43;4.77;;;15.80;99.90;;;;;;4936657;28;20202;-78
2022/10/17 07:33:32;;;;;;;5.83;4.40;;;15.80;99.90;;;;;;4947907;29;20300;-79
2022/10/17 07:35:59;;;;;;;7.47;4.83;;;15.90;99.90;;;;;;4940638;29;20673;-79
2022/10/17 07:38:25;;;;;;;19.83;6.77;;;15.90;99.90;;;;;;4949021;29;20195;-79
2022/10/17 07:40:55;;;;;;;6.97;4.73;;;16.00;99.90;;;;;;4947014;29;20305;-79
2022/10/17 07:43:22;;;;;;;6.10;4.20;;;16.10;99.90;;;;;;4941852;29;20199;-78
2022/10/17 07:45:47;;;;;;;6.17;4.30;;;16.20;99.90;;;;;;4944770;29;20234;-81
2022/10/17 07:48:13;;;;;;;4.17;3.87;;;16.30;99.90;;;;;;4939802;29;20631;-81
2022/10/17 07:50:38;;;;;;;9.57;4.43;;;16.30;99.90;;;;;;4930245;29;20238;-73
2022/10/17 07:53:04;;;;;;;4.47;4.07;;;16.40;99.90;;;;;;4931742;29;20222;-72
2022/10/17 07:55:29;;;;;;;4.90;4.27;;;16.40;99.90;;;;;;4931305;29;20250;-73
2022/10/17 07:57:56;;;;;;;6.70;4.63;;;16.40;99.90;;;;;;4931252;29;20183;-74
2022/10/17 08:00:21;;;;;;;6.73;4.10;;;16.50;99.90;;;;;;4930466;29;20229;-74
2022/10/17 08:02:47;;;;;;;4.87;4.20;;;16.50;99.90;;;;;;4941523;29;20654;-74
2022/10/17 08:05:13;;;;;;;6.40;3.30;;;16.50;99.90;;;;;;4941995;29;20213;-75
2022/10/17 08:07:39;;;;;;;4.13;3.73;;;16.60;99.90;;;;;;4945681;29;20361;-77
2022/10/17 08:10:04;;;;;;;4.03;3.33;;;16.60;99.90;;;;;;4932318;29;20201;-73
2022/10/17 08:12:33;;;;;;;14.37;7.63;;;16.70;99.90;;;;;;4944359;29;20874;-78
2022/10/17 08:15:01;;;;;;;5.73;4.30;;;16.80;99.90;;;;;;4933949;29;20198;-75
2022/10/17 08:17:27;;;;;;;6.30;4.67;;;16.90;99.90;;;;;;4938034;29;20203;-74
2022/10/17 08:19:52;;;;;;;4.13;3.50;;;17.00;99.90;;;;;;4933956;29;20700;-75
2022/10/17 08:22:18;;;;;;;4.90;4.00;;;17.10;99.90;;;;;;4942602;29;20285;-70
2022/10/17 08:24:45;;;;;;;5.47;4.00;;;17.20;99.90;;;;;;4935872;29;20198;-70
2022/10/17 08:27:12;;;;;;;8.07;4.80;;;17.30;99.90;;;;;;4935917;29;20638;-70
2022/10/17 08:29:38;;;;;;;4.77;3.30;;;17.40;99.90;;;;;;4939961;29;20194;-72
2022/10/17 08:32:05;;;;;;;5.50;3.93;;;17.50;99.90;;;;;;4939443;29;20225;-70
2022/10/17 08:34:30;;;;;;;6.77;4.07;;;17.50;99.90;;;;;;4934049;29;20313;-70
2022/10/17 08:36:56;;;;;;;4.20;3.73;;;17.60;99.90;;;;;;4933173;29;20317;-76
2022/10/17 08:39:21;;;;;;;3.97;3.67;;;17.60;99.90;;;;;;4940914;29;20205;-68
2022/10/17 08:42:24;;;;;;;4.33;3.80;;;17.70;99.90;;;;;;4941118;29;20226;-70
2022/10/17 08:45:09;;;;;;;5.40;3.67;;;17.80;99.90;;;;;;4930086;29;20284;-70
2022/10/17 08:47:39;;;;;;;5.87;3.60;;;17.90;99.90;;;;;;4936085;29;20266;-71
2022/10/17 08:50:11;;;;;;;3.77;3.10;;;18.00;99.90;;;;;;4932509;29;20547;-70
2022/10/17 08:52:49;;;;;;;3.50;2.70;;;18.10;99.90;;;;;;4943349;28;20218;-68
2022/10/17 08:55:22;;;;;;;5.57;3.00;;;18.20;99.90;;;;;;4939411;29;20202;-70
2022/10/17 08:57:48;;;;;;;7.13;3.83;;;18.30;99.90;;;;;;4939827;29;20203;-70
2022/10/17 09:00:19;;;;;;;3.27;2.97;;;18.30;99.90;;;;;;4936860;29;20199;-72
2022/10/17 09:03:19;;;;;;;4.10;3.70;;;18.40;99.90;;;;;;4936149;29;20199;-69
2022/10/17 09:06:09;;;;;;;3.37;3.07;;;18.50;99.90;;;;;;4936651;29;20208;-71
2022/10/17 09:08:57;;;;;;;3.00;2.80;;;18.60;99.90;;;;;;4936258;29;20291;-71
2022/10/17 09:11:47;;;;;;;6.40;3.67;;;18.70;99.90;;;;;;4932464;29;20763;-71
2022/10/17 09:14:50;;;;;;;6.53;3.10;;;18.80;99.90;;;;;;4936568;29;20518;-70
2022/10/17 09:17:33;;;;;;;4.93;3.30;;;18.80;99.90;;;;;;4933879;29;20194;-70
2022/10/17 09:20:19;;;;;;;3.67;3.30;;;19.00;99.90;;;;;;4937595;29;20199;-73
2022/10/17 09:23:12;;;;;;;4.53;3.23;;;19.00;99.90;;;;;;4936808;29;20692;-71
2022/10/17 09:25:47;;;;;;;6.87;3.53;;;19.20;99.90;;;;;;4927309;29;20235;-74
2022/10/17 09:28:20;;;;;;;3.70;3.40;;;19.30;99.90;;;;;;4931960;29;20250;-70
2022/10/17 09:30:54;;;;;;;6.27;3.50;;;19.40;99.90;;;;;;4924358;29;20270;-70
2022/10/17 09:33:27;;;;;;;2.97;2.67;;;19.40;99.90;;;;;;4929307;29;20762;-69
2022/10/17 09:35:53;;;;;;;3.67;2.83;;;19.50;99.90;;;;;;4926830;29;20201;-71
2022/10/17 09:38:24;;;;;;;6.97;2.80;;;19.60;99.90;;;;;;4928806;29;20194;-70
2022/10/17 09:40:59;;;;;;;3.80;3.30;;;19.70;99.90;;;;;;4926703;29;20208;-70
2022/10/17 09:43:25;;;;;;;2.80;2.40;;;19.70;99.90;;;;;;4929002;29;20215;-71
2022/10/17 09:45:58;;;;;;;4.53;2.93;;;19.80;99.90;;;;;;4924936;29;20228;-72
2022/10/17 09:48:40;;;;;;;3.00;2.80;;;19.90;99.90;;;;;;4943052;29;20489;-71
2022/10/17 09:51:07;;;;;;;4.57;2.90;;;19.90;99.90;;;;;;4935901;29;20888;-70
2022/10/17 09:53:36;;;;;;;3.00;2.80;;;20.00;99.90;;;;;;4942680;28;20221;-69
2022/10/17 09:56:07;;;;;;;2.70;2.47;;;20.20;99.90;;;;;;4937327;29;20346;-71
2022/10/17 09:58:44;;;;;;;7.57;3.03;;;20.30;99.90;;;;;;4944934;29;20184;-70
2022/10/17 10:01:27;;;;;;;3.17;2.93;;;20.40;99.90;;;;;;4941508;29;20212;-70
2022/10/17 10:04:14;;;;;;;3.43;2.80;;;20.50;99.90;;;;;;4938237;29;20607;-70
2022/10/17 10:06:41;;;;;;;6.97;3.50;;;20.60;99.90;;;;;;4932558;29;20210;-69
2022/10/17 10:09:28;;;;;;;4.40;2.53;;;20.70;99.90;;;;;;4942803;29;20194;-70
2022/10/17 10:11:56;;;;;;;3.23;2.70;;;20.90;99.90;;;;;;4943014;29;20732;-69
2022/10/17 10:14:23;;;;;;;3.30;2.87;;;21.00;99.90;;;;;;4941410;29;20271;-82
2022/10/17 10:16:52;;;;;;;3.90;2.90;;;21.20;99.90;;;;;;4948291;29;20248;-83
2022/10/17 10:19:32;;;;;;;4.33;2.43;;;21.40;99.90;;;;;;4938519;29;20193;-71
2022/10/17 10:22:00;;;;;;;3.00;2.80;;;21.60;99.90;;;;;;4940949;29;20207;-70
2022/10/17 10:24:27;;;;;;;3.00;2.80;;;21.80;99.90;;;;;;4939047;29;20285;-71
2022/10/17 10:26:55;;;;;;;2.90;2.70;;;21.90;99.90;;;;;;4941453;29;20649;-72
2022/10/17 10:29:40;;;;;;;3.00;2.70;;;21.90;99.90;;;;;;4937951;29;20197;-71
2022/10/17 10:32:29;;;;;;;3.37;2.57;;;21.90;99.90;;;;;;4935128;29;20205;-72
2022/10/17 10:35:04;;;;;;;2.80;2.50;;;21.90;99.90;;;;;;4937189;29;20345;-65
2022/10/17 10:37:37;;;;;;;6.03;2.50;;;22.00;99.90;;;;;;4944708;29;20246;-71
2022/10/17 10:40:37;;;;;;;5.13;2.63;;;22.10;99.90;;;;;;4938511;29;20187;-72
2022/10/17 10:43:05;;;;;;;3.27;2.70;;;22.20;99.90;;;;;;4933613;29;20206;-70
2022/10/17 10:45:36;;;;;;;5.87;2.93;;;22.30;99.90;;;;;;4941813;29;20681;-70
2022/10/17 10:48:19;;;;;;;3.23;2.80;;;22.40;99.90;;;;;;4934042;29;20229;-69
2022/10/17 10:50:49;;;;;;;2.67;2.47;;;22.60;99.90;;;;;;4928779;29;20213;-69
2022/10/17 10:53:42;;;;;;;3.90;2.90;;;22.70;99.90;;;;;;4937465;28;20219;-67
2022/10/17 10:56:28;;;;;;;5.97;2.67;;;22.70;99.90;;;;;;4938281;29;20210;-71
2022/10/17 10:59:01;;;;;;;12.10;3.57;;;22.80;99.90;;;;;;4942558;29;20249;-70
2022/10/17 11:01:38;;;;;;;5.83;3.27;;;22.90;99.90;;;;;;4939179;29;20408;-69
2022/10/17 11:04:26;;;;;;;6.88;2.83;;;23.00;99.90;;;;;;4942103;29;20254;-68
2022/10/17 11:06:59;;;;;;;4.87;3.17;;;23.30;99.90;;;;;;4932413;28;20620;-70
2022/10/17 11:09:47;;;;;;;7.30;3.92;;;23.50;99.90;;;;;;4938291;29;20199;-67
2022/10/17 11:12:28;;;;;;;3.40;2.60;;;23.70;99.90;;;;;;4944337;29;20206;-68
2022/10/17 11:15:35;;;;;;;8.25;3.88;;;23.80;99.90;;;;;;4947242;29;20543;-69
2022/10/17 11:18:25;;;;;;;8.35;3.10;;;24.00;99.90;;;;;;4940675;29;20191;-66
2022/10/17 11:21:09;;;;;;;5.43;2.88;;;24.20;99.90;;;;;;4929655;29;20226;-71
2022/10/17 11:23:50;;;;;;;5.70;2.87;;;24.20;99.90;;;;;;4931831;29;20311;-69
2022/10/17 11:26:25;;;;;;;4.38;2.85;;;24.40;99.90;;;;;;4926376;29;20211;-70
2022/10/17 11:28:55;;;;;;;5.10;3.08;;;24.50;99.90;;;;;;4931063;29;20210;-69
2022/10/17 11:31:25;;;;;;;7.57;3.45;;;24.60;99.90;;;;;;4928750;29;20210;-68
2022/10/17 11:34:02;;;;;;;6.15;3.22;;;24.80;99.90;;;;;;4946708;29;20218;-68
2022/10/17 11:36:32;;;;;;;7.35;3.00;;;24.90;99.90;;;;;;4939970;29;20211;-68
2022/10/17 11:39:04;;;;;;;4.75;2.78;;;25.00;99.90;;;;;;4946611;29;20352;-69
2022/10/17 11:41:48;;;;;;;5.55;2.50;;;25.20;99.90;;;;;;4940040;29;20694;-69
2022/10/17 11:44:32;;;;;;;4.45;2.88;;;25.30;99.90;;;;;;4931930;29;20238;-70
2022/10/17 11:47:24;;;;;;;3.20;2.90;;;25.40;99.90;;;;;;4930023;29;20228;-70
2022/10/17 11:49:57;;;;;;;2.75;2.28;;;25.40;99.90;;;;;;4931793;29;20259;-70
2022/10/17 11:52:43;;;;;;;3.15;2.88;;;25.60;99.90;;;;;;4940589;28;20206;-70
2022/10/17 11:55:16;;;;;;;8.10;2.75;;;25.60;99.90;;;;;;4939334;29;20527;-69
2022/10/17 11:58:11;;;;;;;3.42;2.70;;;25.70;99.50;;;;;;4942534;29;20219;-68
2022/10/17 12:00:51;;;;;;;3.20;2.30;;;25.80;99.90;;;;;;4935992;29;20203;-69
2022/10/17 12:03:35;;;;;;;3.67;2.65;;;25.90;99.60;;;;;;4940051;29;20237;-76
2022/10/17 12:06:14;;;;;;;4.65;2.97;;;26.20;99.90;;;;;;4938288;29;20220;-81
2022/10/17 12:08:53;;;;;;;4.68;2.72;;;26.50;99.40;;;;;;4945256;29;20210;-71
2022/10/17 12:11:55;;;;;;;3.67;2.53;;;26.70;97.30;;;;;;4934687;29;20292;-75
2022/10/17 12:14:38;;;;;;;2.70;2.50;;;26.70;97.90;;;;;;4945989;29;20256;-78
2022/10/17 12:17:20;;;;;;;3.50;2.53;;;26.90;96.30;;;;;;4940199;29;20210;-73
2022/10/17 12:19:45;;;;;;;2.90;2.50;;;27.00;95.90;;;;;;4930606;29;20566;-70
2022/10/17 12:22:20;;;;;;;6.03;2.95;;;27.30;96.40;;;;;;4937723;29;20213;-71
2022/10/17 12:25:19;;;;;;;3.33;2.80;;;27.60;95.50;;;;;;4945712;29;20217;-72
2022/10/17 12:27:47;;;;;;;3.47;2.70;;;27.70;95.50;;;;;;4941914;29;20236;-78
2022/10/17 12:30:24;;;;;;;4.43;2.70;;;27.90;94.60;;;;;;4937028;29;20221;-74
2022/10/17 12:33:01;;;;;;;4.22;2.88;;;28.10;94.20;;;;;;4942620;29;20611;-71
2022/10/17 12:35:28;;;;;;;3.97;2.80;;;28.20;94.90;;;;;;4935350;29;20202;-70
2022/10/17 12:37:53;;;;;;;6.40;2.85;;;28.50;94.50;;;;;;4942614;29;20775;-71
2022/10/17 12:40:34;;;;;;;2.80;2.50;;;28.70;94.20;;;;;;4945375;29;20198;-71
2022/10/17 12:43:13;;;;;;;2.75;2.47;;;29.00;93.10;;;;;;4943461;29;20272;-69
2022/10/17 12:45:51;;;;;;;4.78;2.88;;;29.10;92.90;;;;;;4935827;29;20284;-71
2022/10/17 12:48:35;;;;;;;3.80;2.20;;;29.20;91.90;;;;;;4936234;29;20211;-71
2022/10/17 12:51:07;;;;;;;3.80;2.72;;;29.30;91.20;;;;;;4944009;29;20329;-74
2022/10/17 12:53:48;;;;;;;7.20;2.33;;;29.40;90.20;;;;;;4945157;28;20249;-69
2022/10/17 12:56:28;;;;;;;5.00;2.75;;;29.40;90.30;;;;;;4930816;29;20203;-71
2022/10/17 12:58:55;;;;;;;4.93;2.35;;;29.40;89.10;;;;;;4932172;29;20206;-71
2022/10/17 13:01:30;;;;;;;2.47;2.20;;;29.00;89.20;;;;;;4927918;29;20245;-70
2022/10/17 13:04:01;;;;;;;4.00;2.28;;;28.70;89.50;;;;;;4943479;29;20724;-70
2022/10/17 13:06:28;;;;;;;3.58;2.10;;;28.50;89.90;;;;;;4927506;29;20198;-71
2022/10/17 13:09:20;;;;;;;2.45;2.20;;;28.30;90.00;;;;;;4932867;29;20203;-71
2022/10/17 13:11:48;;;;;;;4.05;2.20;;;28.20;90.30;;;;;;4927184;29;20198;-71
2022/10/17 13:14:15;;;;;;;3.42;2.55;;;28.20;89.90;;;;;;4929490;29;20643;-70